Time;durP1;ratioP1;P1;durP2;ratioP2;P2;SDS_P1;SDS_P2;PMS_P1;PMS_P2;Temp;Humidity;BMP_temperature;BMP_pressure;BME280_temperature;BME280_humidity;BME280_pressure;Samples;Min_cycle;Max_cycle;Signal;HPM_P1;HPM_P2
2022/03/28 00:00:35;;;;;;;39.00;23.93;;;9.30;99.90;;;;;;5021340;28;20238;-78
2022/03/28 00:03:03;;;;;;;37.83;22.90;;;9.30;99.90;;;;;;5026416;28;20198;-76
2022/03/28 00:05:31;;;;;;;34.63;22.33;;;9.10;99.90;;;;;;5027235;28;20211;-77
2022/03/28 00:08:02;;;;;;;32.77;21.73;;;8.90;99.90;;;;;;5027938;28;20200;-76
2022/03/28 00:10:29;;;;;;;37.63;22.23;;;8.80;99.90;;;;;;5024995;28;20199;-75
2022/03/28 00:12:57;;;;;;;41.00;28.40;;;8.80;99.90;;;;;;5023071;28;20440;-75
2022/03/28 00:15:24;;;;;;;39.77;24.97;;;8.90;99.90;;;;;;5021224;28;20264;-77
2022/03/28 00:17:51;;;;;;;39.00;23.13;;;8.90;99.90;;;;;;5002392;28;20215;-74
2022/03/28 00:20:20;;;;;;;38.80;23.73;;;8.90;99.90;;;;;;5021273;28;20239;-75
2022/03/28 00:22:47;;;;;;;33.50;22.73;;;8.80;99.90;;;;;;5026974;28;20206;-76
2022/03/28 00:25:16;;;;;;;36.70;23.00;;;8.80;99.90;;;;;;5024022;28;20188;-77
2022/03/28 00:27:43;;;;;;;39.73;22.97;;;8.80;99.90;;;;;;5024547;28;20196;-76
2022/03/28 00:30:10;;;;;;;37.73;22.00;;;8.80;99.90;;;;;;5022950;28;20215;-77
2022/03/28 00:32:37;;;;;;;35.00;22.57;;;8.80;99.90;;;;;;5022864;28;20203;-74
2022/03/28 00:35:05;;;;;;;39.03;23.85;;;8.80;99.90;;;;;;5022533;28;20424;-75
2022/03/28 00:37:32;;;;;;;38.03;24.23;;;8.90;99.90;;;;;;5021574;28;20211;-75
2022/03/28 00:39:59;;;;;;;36.07;22.50;;;8.80;99.90;;;;;;5021663;28;20227;-76
2022/03/28 00:42:28;;;;;;;33.13;22.27;;;8.70;99.90;;;;;;5021911;28;20200;-77
2022/03/28 00:44:54;;;;;;;42.07;22.40;;;8.70;99.90;;;;;;5020605;28;20204;-78
2022/03/28 00:47:23;;;;;;;35.50;21.60;;;8.60;99.90;;;;;;5020471;28;20223;-75
2022/03/28 00:49:50;;;;;;;36.33;21.23;;;8.50;99.90;;;;;;5020902;28;20203;-77
2022/03/28 00:52:17;;;;;;;39.20;22.27;;;8.50;99.90;;;;;;5021786;28;20192;-76
2022/03/28 00:54:44;;;;;;;37.50;22.37;;;8.50;99.90;;;;;;5020572;28;20207;-75
2022/03/28 00:57:12;;;;;;;39.87;23.23;;;8.50;99.90;;;;;;5020717;28;20204;-74
2022/03/28 00:59:40;;;;;;;41.92;26.70;;;8.50;99.90;;;;;;5020354;28;20452;-76
2022/03/28 01:02:07;;;;;;;34.17;23.77;;;8.60;99.90;;;;;;5019817;28;20219;-75
2022/03/28 01:04:37;;;;;;;41.00;24.37;;;8.60;99.90;;;;;;5020414;28;20204;-75
2022/03/28 01:07:06;;;;;;;41.53;24.30;;;8.60;99.90;;;;;;5021163;28;20238;-75
2022/03/28 01:09:35;;;;;;;43.20;24.30;;;8.50;99.90;;;;;;5023069;28;20211;-75
2022/03/28 01:12:03;;;;;;;38.23;23.13;;;8.50;99.90;;;;;;5021945;28;20216;-77
2022/03/28 01:14:32;;;;;;;37.20;22.40;;;8.50;99.90;;;;;;5023674;28;20192;-77
2022/03/28 01:19:50;;;;;;;39.20;22.73;;;8.50;99.90;;;;;;5022233;28;20234;-76
2022/03/28 01:22:18;;;;;;;41.50;22.90;;;8.30;99.90;;;;;;5021738;28;20207;-76
2022/03/28 01:24:46;;;;;;;34.90;22.07;;;8.30;99.90;;;;;;5023648;28;20251;-75
2022/03/28 01:27:15;;;;;;;37.60;22.30;;;8.30;99.90;;;;;;5021566;28;20211;-77
2022/03/28 01:29:44;;;;;;;39.10;22.07;;;8.20;99.90;;;;;;5022609;28;20211;-74
2022/03/28 01:32:13;;;;;;;40.10;22.30;;;8.10;99.90;;;;;;5025312;28;20203;-76
2022/03/28 01:34:40;;;;;;;40.43;22.33;;;8.10;99.90;;;;;;5021171;28;20204;-75
2022/03/28 01:37:07;;;;;;;38.00;22.13;;;8.00;99.90;;;;;;5022260;28;20659;-74
2022/03/28 01:39:35;;;;;;;41.23;22.30;;;8.00;99.90;;;;;;5023495;28;20701;-76
2022/03/28 01:42:02;;;;;;;37.30;21.53;;;8.10;99.90;;;;;;5022130;28;20200;-77
2022/03/28 01:44:30;;;;;;;34.43;21.77;;;8.10;99.90;;;;;;5022243;28;20208;-76
2022/03/28 01:46:59;;;;;;;39.53;22.30;;;8.10;99.90;;;;;;5022455;28;20239;-77
2022/03/28 01:49:26;;;;;;;39.27;22.00;;;8.10;99.90;;;;;;5025258;28;20202;-74
2022/03/28 01:51:54;;;;;;;35.13;21.47;;;8.00;99.90;;;;;;5027125;28;20208;-77
2022/03/28 01:54:21;;;;;;;33.97;21.87;;;8.00;99.90;;;;;;5026261;28;20204;-77
2022/03/28 01:56:49;;;;;;;36.37;21.13;;;7.90;99.90;;;;;;5025741;28;20203;-75
2022/03/28 01:59:16;;;;;;;36.43;21.17;;;7.90;99.90;;;;;;5025613;28;20196;-77
2022/03/28 02:01:42;;;;;;;37.07;21.77;;;8.00;99.90;;;;;;5025479;28;20215;-75
2022/03/28 02:04:13;;;;;;;40.53;21.63;;;8.00;99.90;;;;;;5023775;28;20208;-77
2022/03/28 02:06:40;;;;;;;32.37;20.13;;;8.00;99.90;;;;;;5024405;28;20203;-76
2022/03/28 02:09:07;;;;;;;32.30;20.80;;;8.00;99.90;;;;;;5023928;28;20216;-77
2022/03/28 02:11:36;;;;;;;40.00;25.58;;;7.90;99.90;;;;;;5021385;28;20435;-77
2022/03/28 02:14:05;;;;;;;38.23;22.00;;;7.90;99.90;;;;;;5022534;28;20586;-77
2022/03/28 02:16:34;;;;;;;35.73;22.37;;;7.90;99.90;;;;;;5023203;28;20267;-76
2022/03/28 02:19:04;;;;;;;36.60;21.87;;;8.00;99.90;;;;;;5022375;28;20204;-76
2022/03/28 02:21:38;;;;;;;31.67;19.73;;;7.90;99.90;;;;;;5005608;28;20232;-77
2022/03/28 02:24:09;;;;;;;33.53;20.07;;;7.80;99.90;;;;;;5024704;28;20721;-74
2022/03/28 02:26:40;;;;;;;34.73;20.17;;;7.80;99.90;;;;;;5024262;28;20291;-75
2022/03/28 02:29:12;;;;;;;34.27;20.87;;;7.60;99.90;;;;;;5024001;28;20199;-75
2022/03/28 02:31:38;;;;;;;33.80;20.97;;;7.70;99.90;;;;;;5024872;28;20199;-76
2022/03/28 02:34:10;;;;;;;34.00;20.23;;;7.60;99.90;;;;;;5025065;28;20211;-77
2022/03/28 02:36:37;;;;;;;35.67;20.77;;;7.70;99.90;;;;;;5024015;28;20323;-76
2022/03/28 02:39:07;;;;;;;31.23;20.43;;;7.60;99.90;;;;;;5023828;28;20659;-75
2022/03/28 02:41:36;;;;;;;32.57;21.07;;;7.60;99.90;;;;;;5027070;28;20236;-75
2022/03/28 02:44:07;;;;;;;33.17;20.23;;;7.40;99.90;;;;;;5025916;28;20207;-75
2022/03/28 02:46:36;;;;;;;37.60;23.00;;;7.50;99.90;;;;;;5026399;28;20231;-75
2022/03/28 02:49:06;;;;;;;35.47;21.00;;;7.40;99.90;;;;;;5026413;28;20326;-75
2022/03/28 02:51:36;;;;;;;34.83;20.10;;;7.30;99.90;;;;;;5025690;28;20559;-76
2022/03/28 02:54:03;;;;;;;36.10;20.63;;;7.20;99.90;;;;;;5026140;28;20227;-76
2022/03/28 02:56:32;;;;;;;39.27;20.20;;;7.20;99.90;;;;;;5025703;28;20224;-75
2022/03/28 02:59:00;;;;;;;33.57;19.87;;;7.20;99.90;;;;;;5024929;28;20196;-74
2022/03/28 03:01:27;;;;;;;32.50;20.03;;;7.10;99.90;;;;;;5024157;28;20259;-76
2022/03/28 03:03:55;;;;;;;32.27;19.43;;;7.10;99.90;;;;;;5024757;28;20208;-75
2022/03/28 03:06:24;;;;;;;29.33;19.50;;;7.00;99.90;;;;;;5023996;28;20620;-76
2022/03/28 03:08:52;;;;;;;37.47;20.43;;;7.00;99.90;;;;;;5024564;28;20203;-75
2022/03/28 03:11:22;;;;;;;34.80;19.07;;;7.00;99.90;;;;;;5025384;28;20209;-76
2022/03/28 03:13:53;;;;;;;33.57;20.00;;;7.00;99.90;;;;;;5029790;28;20242;-77
2022/03/28 03:16:20;;;;;;;30.93;18.83;;;6.90;99.90;;;;;;5028626;28;20204;-77
2022/03/28 03:18:48;;;;;;;35.80;19.63;;;6.90;99.90;;;;;;5027788;28;20219;-76
2022/03/28 03:21:24;;;;;;;33.60;20.00;;;6.90;99.90;;;;;;5029884;28;20232;-75
2022/03/28 03:23:52;;;;;;;38.97;26.02;;;6.90;99.90;;;;;;5031331;28;20432;-77
2022/03/28 03:26:26;;;;;;;36.93;20.53;;;7.20;99.90;;;;;;5032464;28;20203;-75
2022/03/28 03:29:18;;;;;;;33.33;20.33;;;7.20;99.90;;;;;;5031556;28;20192;-77
2022/03/28 03:32:03;;;;;;;31.30;19.77;;;7.20;99.90;;;;;;5033283;28;20207;-77
2022/03/28 03:34:30;;;;;;;32.53;20.03;;;7.10;99.90;;;;;;5033399;28;20267;-76
2022/03/28 03:37:03;;;;;;;32.80;20.20;;;6.90;99.90;;;;;;5031650;28;20238;-77
2022/03/28 03:39:30;;;;;;;34.83;20.63;;;6.90;99.90;;;;;;5015875;28;20218;-76
2022/03/28 03:42:06;;;;;;;34.23;18.13;;;6.80;99.90;;;;;;5034627;28;20230;-77
2022/03/28 03:44:35;;;;;;;34.27;19.83;;;6.80;99.90;;;;;;5034973;28;20204;-75
2022/03/28 03:47:03;;;;;;;36.10;24.63;;;6.70;99.90;;;;;;5033042;28;20476;-77
2022/03/28 03:49:30;;;;;;;34.63;19.83;;;6.70;99.90;;;;;;5032761;28;20212;-76
2022/03/28 03:52:06;;;;;;;36.63;20.83;;;6.60;99.90;;;;;;5031639;28;20259;-76
2022/03/28 03:54:50;;;;;;;37.13;20.77;;;6.70;99.90;;;;;;5033854;28;20195;-77
2022/03/28 03:57:16;;;;;;;34.40;19.77;;;6.70;99.90;;;;;;5034257;28;20271;-77
2022/03/28 03:59:50;;;;;;;32.63;19.53;;;6.70;99.90;;;;;;5034312;28;20189;-76
2022/03/28 04:02:22;;;;;;;37.33;19.87;;;6.70;99.90;;;;;;5032543;28;20218;-79
2022/03/28 04:04:50;;;;;;;36.50;19.57;;;6.80;99.90;;;;;;5031207;28;20204;-74
2022/03/28 04:07:16;;;;;;;38.30;20.20;;;6.70;99.90;;;;;;5025502;28;20200;-75
2022/03/28 04:09:43;;;;;;;36.57;20.03;;;6.70;99.90;;;;;;5023625;28;20699;-76
2022/03/28 04:12:12;;;;;;;38.27;20.93;;;6.70;99.90;;;;;;5022924;28;20556;-77
2022/03/28 04:14:40;;;;;;;37.93;20.70;;;6.50;99.90;;;;;;5024490;28;20211;-77
2022/03/28 04:17:09;;;;;;;34.73;19.47;;;6.60;99.90;;;;;;5025080;28;20219;-75
2022/03/28 04:19:38;;;;;;;29.20;18.37;;;6.60;99.90;;;;;;5025434;28;20219;-75
2022/03/28 04:22:06;;;;;;;35.27;19.90;;;6.60;99.90;;;;;;5024736;28;20240;-75
2022/03/28 04:24:33;;;;;;;33.30;19.47;;;6.60;99.90;;;;;;5025565;28;20207;-74
2022/03/28 04:27:06;;;;;;;34.47;18.63;;;6.50;99.90;;;;;;5024884;28;20571;-77
2022/03/28 04:29:40;;;;;;;33.37;19.37;;;6.40;99.90;;;;;;5024236;28;20239;-75
2022/03/28 04:32:08;;;;;;;33.57;19.30;;;6.50;99.90;;;;;;5025961;28;20203;-75
2022/03/28 04:34:36;;;;;;;37.42;24.00;;;6.40;99.90;;;;;;5025496;28;20456;-74
2022/03/28 04:37:07;;;;;;;38.77;21.20;;;6.50;99.90;;;;;;5025328;28;20212;-76
2022/03/28 04:39:33;;;;;;;38.10;20.10;;;6.60;99.90;;;;;;5023429;28;20199;-77
2022/03/28 04:42:01;;;;;;;33.77;20.23;;;6.40;99.90;;;;;;5026104;28;20228;-77
2022/03/28 04:44:28;;;;;;;36.37;20.03;;;6.40;99.90;;;;;;5024650;28;20218;-77
2022/03/28 04:47:00;;;;;;;32.73;19.60;;;6.30;99.90;;;;;;5026310;28;20230;-77
2022/03/28 04:49:33;;;;;;;32.20;19.83;;;6.30;99.90;;;;;;5026491;28;20208;-76
2022/03/28 04:52:14;;;;;;;36.07;19.37;;;6.30;99.90;;;;;;5026867;28;20195;-74
2022/03/28 04:54:43;;;;;;;32.33;19.17;;;6.30;99.90;;;;;;5026527;28;20617;-75
2022/03/28 04:57:11;;;;;;;32.30;19.73;;;6.10;99.90;;;;;;5025522;28;20184;-76
2022/03/28 04:59:38;;;;;;;35.60;18.90;;;6.10;99.90;;;;;;5025369;28;20207;-76
2022/03/28 05:02:10;;;;;;;37.23;19.83;;;6.00;99.90;;;;;;5043543;28;20262;-74
2022/03/28 05:04:37;;;;;;;34.30;20.20;;;5.90;99.90;;;;;;5046834;28;20651;-75
2022/03/28 05:07:07;;;;;;;34.03;19.73;;;6.00;99.90;;;;;;5045225;28;20226;-75
2022/03/28 05:09:36;;;;;;;34.67;19.83;;;6.10;99.90;;;;;;5047381;28;20245;-75
2022/03/28 05:12:07;;;;;;;33.03;18.90;;;5.90;99.90;;;;;;5045844;28;20207;-76
2022/03/28 05:14:34;;;;;;;35.73;20.53;;;5.90;99.90;;;;;;5047892;28;20199;-75
2022/03/28 05:17:05;;;;;;;36.40;20.73;;;5.90;99.90;;;;;;5046327;28;20191;-76
2022/03/28 05:19:36;;;;;;;33.70;18.87;;;5.80;99.90;;;;;;5045780;28;20250;-75
2022/03/28 05:22:04;;;;;;;36.83;23.35;;;5.90;99.90;;;;;;5046188;28;20451;-75
2022/03/28 05:24:31;;;;;;;38.07;21.33;;;6.00;99.90;;;;;;5050474;28;20195;-75
2022/03/28 05:27:02;;;;;;;40.10;20.23;;;6.00;99.90;;;;;;5050763;28;20201;-77
2022/03/28 05:29:31;;;;;;;35.40;19.20;;;6.00;99.90;;;;;;5048550;28;20214;-77
2022/03/28 05:31:58;;;;;;;37.67;19.33;;;5.90;99.90;;;;;;5048302;28;20693;-76
2022/03/28 05:34:30;;;;;;;40.47;19.93;;;6.00;99.90;;;;;;5048400;28;20203;-77
2022/03/28 05:37:07;;;;;;;36.27;20.20;;;6.10;99.90;;;;;;5048602;28;20222;-75
2022/03/28 05:39:36;;;;;;;33.43;18.07;;;6.00;99.90;;;;;;5049564;28;20209;-76
2022/03/28 05:42:08;;;;;;;33.97;19.17;;;5.90;99.90;;;;;;5050218;28;20222;-75
2022/03/28 05:44:47;;;;;;;35.90;20.33;;;5.80;99.90;;;;;;5050292;28;20214;-76
2022/03/28 05:47:15;;;;;;;60.83;23.43;;;5.80;99.90;;;;;;5047802;28;20231;-76
2022/03/28 05:49:42;;;;;;;34.27;19.13;;;5.80;99.90;;;;;;5050642;28;20230;-77
2022/03/28 05:52:12;;;;;;;33.13;19.40;;;5.70;99.90;;;;;;5050524;28;20230;-76
2022/03/28 05:54:38;;;;;;;34.63;20.27;;;5.70;99.90;;;;;;5050389;28;20192;-76
2022/03/28 05:57:06;;;;;;;31.77;19.63;;;5.80;99.90;;;;;;5049217;28;20214;-76
2022/03/28 05:59:35;;;;;;;34.53;19.77;;;6.00;99.90;;;;;;5048349;28;20234;-76
2022/03/28 06:02:04;;;;;;;36.30;18.80;;;6.00;99.90;;;;;;5047328;28;20305;-78
2022/03/28 06:04:34;;;;;;;34.13;20.57;;;6.10;99.90;;;;;;5048217;28;20225;-77
2022/03/28 06:07:08;;;;;;;31.53;20.47;;;6.10;99.90;;;;;;5048028;28;20210;-78
2022/03/28 06:09:36;;;;;;;37.67;20.67;;;6.10;99.90;;;;;;5048839;28;20195;-77
2022/03/28 06:12:08;;;;;;;35.80;21.00;;;6.10;99.90;;;;;;5049018;28;20218;-77
2022/03/28 06:14:37;;;;;;;36.40;20.53;;;6.10;99.90;;;;;;5049685;28;20290;-76
2022/03/28 06:17:06;;;;;;;37.30;20.73;;;6.10;99.90;;;;;;5049367;28;20218;-77
2022/03/28 06:19:34;;;;;;;35.40;19.70;;;6.10;99.90;;;;;;5048473;28;20199;-76
2022/03/28 06:22:11;;;;;;;37.70;19.80;;;6.20;99.90;;;;;;5048120;28;20262;-75
2022/03/28 06:24:39;;;;;;;37.00;19.57;;;6.10;99.90;;;;;;5048548;28;20251;-76
2022/03/28 06:27:07;;;;;;;35.87;20.57;;;6.00;99.90;;;;;;5049831;28;20231;-76
2022/03/28 06:29:53;;;;;;;32.97;19.70;;;6.20;99.90;;;;;;5048908;28;20233;-76
2022/03/28 06:32:28;;;;;;;37.73;20.47;;;6.30;99.90;;;;;;5050149;28;20207;-76
2022/03/28 06:34:56;;;;;;;39.50;25.52;;;6.30;99.90;;;;;;5046039;28;20464;-76
2022/03/28 06:37:25;;;;;;;35.93;21.70;;;6.50;99.90;;;;;;5051145;28;20554;-77
2022/03/28 06:39:57;;;;;;;35.50;20.03;;;6.50;99.90;;;;;;5046968;28;20207;-77
2022/03/28 06:42:26;;;;;;;42.07;20.93;;;6.60;99.90;;;;;;5046841;28;20220;-77
2022/03/28 06:44:57;;;;;;;38.77;21.37;;;6.70;99.90;;;;;;5050076;28;20650;-77
2022/03/28 06:47:30;;;;;;;35.23;21.13;;;6.80;99.90;;;;;;5047243;28;20230;-76
2022/03/28 06:49:59;;;;;;;35.63;20.87;;;6.90;99.90;;;;;;5045106;28;20214;-76
2022/03/28 06:52:33;;;;;;;35.03;20.30;;;6.90;99.90;;;;;;5046286;28;20199;-77
2022/03/28 06:55:02;;;;;;;33.13;20.30;;;7.00;99.90;;;;;;5046845;28;20238;-76
2022/03/28 06:57:32;;;;;;;36.73;21.00;;;6.80;99.90;;;;;;5046472;28;20195;-77
2022/03/28 07:00:01;;;;;;;38.63;21.40;;;6.90;99.90;;;;;;5044798;28;20245;-76
2022/03/28 07:02:27;;;;;;;37.80;20.20;;;7.00;99.90;;;;;;5045028;28;20239;-76
2022/03/28 07:05:03;;;;;;;37.77;20.10;;;7.20;99.90;;;;;;5041967;28;20213;-76
2022/03/28 07:07:38;;;;;;;38.90;20.30;;;7.40;99.90;;;;;;5042340;28;20191;-77
2022/03/28 07:10:08;;;;;;;37.83;21.00;;;7.50;99.90;;;;;;5038368;28;20207;-76
2022/03/28 07:12:38;;;;;;;34.27;20.63;;;7.70;99.90;;;;;;5038737;28;20187;-76
2022/03/28 07:15:10;;;;;;;46.83;22.20;;;7.70;99.90;;;;;;5045110;28;20290;-77
2022/03/28 07:17:58;;;;;;;43.13;21.87;;;7.90;99.90;;;;;;5026076;28;20558;-77
2022/03/28 07:20:27;;;;;;;42.43;21.57;;;8.00;99.90;;;;;;5045712;28;20276;-77
2022/03/28 07:23:09;;;;;;;39.03;21.90;;;8.20;99.90;;;;;;5031144;28;20223;-76
2022/03/28 07:25:37;;;;;;;41.33;22.57;;;8.20;99.90;;;;;;5026050;28;20198;-76
2022/03/28 07:28:08;;;;;;;36.53;21.00;;;8.40;99.90;;;;;;5020647;28;20564;-76
2022/03/28 07:30:37;;;;;;;32.70;20.67;;;8.50;99.90;;;;;;5021537;28;20207;-76
2022/03/28 07:33:06;;;;;;;35.20;20.37;;;8.60;99.90;;;;;;5025996;28;20200;-78
2022/03/28 07:35:35;;;;;;;34.57;21.07;;;8.70;99.90;;;;;;5020523;28;20200;-78
2022/03/28 07:38:06;;;;;;;40.67;21.87;;;8.80;99.90;;;;;;5019570;28;20203;-76
2022/03/28 07:40:37;;;;;;;40.00;21.57;;;9.00;99.90;;;;;;5019501;28;20208;-76
2022/03/28 07:43:18;;;;;;;38.73;20.53;;;9.10;99.90;;;;;;5018705;28;20573;-76
2022/03/28 07:45:46;;;;;;;38.37;19.73;;;9.30;99.90;;;;;;5018902;28;20663;-77
2022/03/28 07:48:13;;;;;;;42.80;21.43;;;9.30;99.90;;;;;;5019679;28;20243;-76
2022/03/28 07:50:44;;;;;;;38.67;20.97;;;9.40;99.90;;;;;;5017952;28;20656;-76
2022/03/28 07:53:12;;;;;;;37.27;20.17;;;9.50;99.90;;;;;;5018715;28;20299;-77
2022/03/28 07:55:41;;;;;;;40.83;20.67;;;9.60;99.90;;;;;;5019598;28;20203;-77
2022/03/28 07:58:10;;;;;;;37.73;19.83;;;9.70;99.90;;;;;;5018105;28;20208;-77
2022/03/28 08:00:39;;;;;;;30.77;20.37;;;9.90;99.90;;;;;;5017676;28;20208;-77
2022/03/28 08:03:07;;;;;;;36.13;20.23;;;10.10;99.90;;;;;;5017529;28;20241;-77
2022/03/28 08:05:34;;;;;;;30.97;20.43;;;10.20;99.90;;;;;;5016722;28;20204;-77
2022/03/28 08:08:00;;;;;;;37.23;20.03;;;10.30;99.90;;;;;;5017158;28;20694;-76
2022/03/28 08:10:27;;;;;;;33.85;23.45;;;10.40;99.90;;;;;;5018065;28;20439;-78
2022/03/28 08:12:54;;;;;;;33.20;20.83;;;10.70;99.90;;;;;;5018496;28;20219;-77
2022/03/28 08:15:26;;;;;;;33.57;20.17;;;10.60;99.90;;;;;;5017352;28;20207;-78
2022/03/28 08:17:53;;;;;;;33.00;19.97;;;10.70;99.90;;;;;;5017650;28;20647;-77
2022/03/28 08:20:20;;;;;;;30.77;19.40;;;10.60;99.90;;;;;;5015973;28;20211;-77
2022/03/28 08:22:49;;;;;;;34.37;19.33;;;10.80;99.90;;;;;;5015881;28;20717;-76
2022/03/28 08:25:19;;;;;;;36.43;20.47;;;10.90;99.90;;;;;;5015509;28;20200;-76
2022/03/28 08:27:46;;;;;;;33.20;20.57;;;11.30;99.90;;;;;;5017379;28;20215;-76
2022/03/28 08:30:13;;;;;;;36.60;20.70;;;11.30;99.90;;;;;;5016953;28;20688;-76
2022/03/28 08:32:42;;;;;;;28.07;19.03;;;11.30;99.90;;;;;;5016094;28;20204;-76
2022/03/28 08:35:10;;;;;;;32.03;19.67;;;11.30;99.90;;;;;;5016407;28;20217;-75
2022/03/28 08:37:37;;;;;;;30.57;20.23;;;11.30;99.90;;;;;;5017017;28;20203;-76
2022/03/28 08:40:06;;;;;;;32.37;19.97;;;11.30;99.90;;;;;;5015561;28;20240;-75
2022/03/28 08:42:34;;;;;;;28.73;20.00;;;11.40;99.90;;;;;;5020539;28;20566;-76
2022/03/28 08:45:03;;;;;;;30.03;19.63;;;11.40;99.90;;;;;;5029579;28;20570;-76
2022/03/28 08:47:33;;;;;;;30.47;19.73;;;11.40;99.90;;;;;;5015362;28;20263;-77
2022/03/28 08:50:05;;;;;;;36.53;19.70;;;11.70;99.90;;;;;;5015537;28;20212;-77
2022/03/28 08:52:32;;;;;;;33.63;19.73;;;11.90;99.90;;;;;;5015472;28;20552;-77
2022/03/28 08:54:59;;;;;;;27.80;19.50;;;11.80;99.90;;;;;;5029907;28;20212;-76
2022/03/28 08:57:25;;;;;;;31.07;19.10;;;12.00;99.90;;;;;;5016729;28;20192;-76
2022/03/28 08:59:52;;;;;;;28.40;18.43;;;12.20;99.90;;;;;;5015180;28;20210;-76
2022/03/28 09:02:33;;;;;;;28.10;18.90;;;12.30;99.90;;;;;;5015142;28;20264;-76
2022/03/28 09:05:01;;;;;;;27.57;19.20;;;12.20;99.90;;;;;;5018800;28;20197;-76
2022/03/28 09:07:29;;;;;;;26.87;18.57;;;12.20;99.90;;;;;;5021163;28;20213;-76
2022/03/28 09:10:02;;;;;;;33.70;20.77;;;12.40;99.90;;;;;;5023446;28;20267;-77
2022/03/28 09:12:30;;;;;;;29.87;20.00;;;12.60;99.90;;;;;;5056460;28;20211;-78
2022/03/28 09:15:01;;;;;;;30.97;19.23;;;12.50;99.90;;;;;;5033531;28;20640;-78
2022/03/28 09:17:28;;;;;;;26.73;18.63;;;12.50;99.90;;;;;;5022449;28;20680;-75
2022/03/28 09:19:59;;;;;;;32.57;19.37;;;12.60;99.90;;;;;;5039236;28;20213;-76
2022/03/28 09:22:29;;;;;;;28.37;19.07;;;12.90;99.90;;;;;;5018682;28;20229;-76
2022/03/28 09:24:58;;;;;;;28.10;18.90;;;13.10;99.90;;;;;;5038349;28;20268;-76
2022/03/28 09:27:27;;;;;;;31.97;19.17;;;13.20;99.90;;;;;;5036564;28;20217;-76
2022/03/28 09:30:07;;;;;;;24.67;19.13;;;13.40;99.90;;;;;;5038021;28;20213;-76
2022/03/28 09:32:37;;;;;;;30.53;18.60;;;13.40;99.90;;;;;;5035312;28;20212;-78
2022/03/28 09:35:19;;;;;;;30.23;20.07;;;13.40;99.90;;;;;;5032600;28;20195;-77
2022/03/28 09:38:01;;;;;;;30.73;19.40;;;13.30;99.90;;;;;;5030650;28;20238;-76
2022/03/28 09:40:33;;;;;;;25.83;18.40;;;13.60;99.90;;;;;;5019331;28;20210;-78
2022/03/28 09:43:03;;;;;;;22.40;18.10;;;13.60;99.90;;;;;;5034347;28;20233;-77
2022/03/28 09:45:35;;;;;;;28.15;19.95;;;13.70;99.90;;;;;;5033834;28;20937;-77
2022/03/28 09:48:19;;;;;;;28.23;17.47;;;13.70;99.90;;;;;;5036544;28;20223;-77
2022/03/28 09:50:49;;;;;;;25.10;18.30;;;13.70;99.90;;;;;;5033912;28;20261;-78
2022/03/28 09:53:21;;;;;;;27.33;18.07;;;13.80;99.90;;;;;;5036190;28;20210;-77
2022/03/28 09:55:51;;;;;;;22.43;17.80;;;13.90;99.90;;;;;;5034210;28;20681;-77
2022/03/28 09:58:42;;;;;;;22.63;18.43;;;13.90;99.90;;;;;;5033410;28;20668;-77
2022/03/28 10:01:12;;;;;;;30.37;18.33;;;14.20;99.90;;;;;;5035400;28;20265;-77
2022/03/28 10:03:39;;;;;;;25.17;17.93;;;14.30;99.90;;;;;;5024004;28;20595;-77
2022/03/28 10:06:08;;;;;;;24.13;17.47;;;14.20;99.90;;;;;;5039704;28;20203;-78
2022/03/28 10:08:37;;;;;;;21.17;16.80;;;14.30;99.90;;;;;;5035982;28;20208;-77
2022/03/28 10:11:43;;;;;;;25.00;17.03;;;14.60;99.90;;;;;;5057265;28;20214;-82
2022/03/28 10:14:14;;;;;;;20.20;16.47;;;14.70;99.90;;;;;;5053374;28;20199;-83
2022/03/28 10:20:10;;;;;;;24.53;16.90;;;15.00;99.90;;;;;;5809145;22;20212;-78
2022/03/28 10:22:43;;;;;;;21.43;16.17;;;14.90;99.90;;;;;;5043541;23;20587;-77
2022/03/28 10:25:18;;;;;;;23.27;16.23;;;14.90;99.90;;;;;;5022578;28;20210;-76
2022/03/28 10:27:45;;;;;;;21.90;16.30;;;15.00;99.90;;;;;;5021107;28;20621;-76
2022/03/28 10:30:20;;;;;;;21.67;15.63;;;15.10;99.90;;;;;;5022512;28;20200;-79
2022/03/28 10:32:47;;;;;;;23.40;14.73;;;15.10;99.90;;;;;;5023670;28;20219;-77
2022/03/28 10:35:18;;;;;;;22.00;15.60;;;15.10;99.90;;;;;;5027386;28;20224;-78
2022/03/28 10:37:48;;;;;;;21.00;15.07;;;15.10;99.90;;;;;;5025314;28;20235;-78
2022/03/28 10:40:22;;;;;;;24.30;16.10;;;15.30;99.90;;;;;;5025714;28;20631;-77
2022/03/28 10:42:53;;;;;;;20.50;15.17;;;15.40;99.90;;;;;;5024581;28;20233;-79
2022/03/28 10:45:41;;;;;;;21.20;15.33;;;15.40;99.90;;;;;;5033955;28;20226;-82
2022/03/28 10:48:39;;;;;;;16.97;13.53;;;15.60;99.90;;;;;;5000757;28;20217;-81
2022/03/28 10:51:10;;;;;;;19.47;14.60;;;15.60;99.90;;;;;;5016850;28;20633;-81
2022/03/28 10:53:42;;;;;;;21.80;14.97;;;15.60;99.90;;;;;;4997950;28;20233;-81
2022/03/28 10:56:41;;;;;;;24.20;15.33;;;15.70;99.90;;;;;;5016710;28;20262;-82
2022/03/28 10:59:20;;;;;;;21.87;17.63;;;15.80;99.90;;;;;;5018554;28;20453;-81
2022/03/28 11:02:00;;;;;;;25.03;16.00;;;15.60;99.90;;;;;;4993681;28;20202;-81
2022/03/28 11:17:39;;;;;;;28.63;19.27;;;16.20;99.90;;;;;;5062709;22;20607;-88
2022/03/28 11:20:23;;;;;;;30.33;19.40;;;16.40;99.90;;;;;;5015132;28;20722;-85
2022/03/28 11:35:14;;;;;;;31.47;20.30;;;16.30;99.90;;;;;;5039151;28;20230;-81
2022/03/28 11:37:42;;;;;;;32.37;20.47;;;16.40;99.90;;;;;;5008108;28;20211;-83
2022/03/28 11:40:58;;;;;;;29.60;19.53;;;16.30;99.90;;;;;;5004807;28;20208;-84
2022/03/28 11:43:45;;;;;;;30.83;19.60;;;16.30;99.90;;;;;;5016677;28;20243;-80
2022/03/28 11:46:14;;;;;;;32.23;20.43;;;16.50;99.90;;;;;;5027578;28;20298;-75
2022/03/28 11:48:56;;;;;;;28.50;19.40;;;16.30;99.90;;;;;;5023996;28;20206;-76
2022/03/28 11:51:25;;;;;;;29.63;19.07;;;16.30;99.90;;;;;;5023886;28;20211;-76
2022/03/28 11:53:53;;;;;;;24.93;18.30;;;16.40;99.90;;;;;;5022128;28;20661;-76
2022/03/28 11:56:25;;;;;;;29.57;20.47;;;16.40;99.90;;;;;;5023302;28;20203;-79
2022/03/28 11:59:01;;;;;;;30.53;21.00;;;16.50;99.90;;;;;;5022890;28;20215;-78
2022/03/28 12:01:30;;;;;;;33.73;22.10;;;16.50;99.90;;;;;;5022884;28;20259;-79
2022/03/28 12:03:57;;;;;;;34.13;21.80;;;16.60;99.90;;;;;;5021939;28;20710;-79
2022/03/28 12:06:32;;;;;;;28.17;20.37;;;16.70;99.90;;;;;;5022617;28;20661;-78
2022/03/28 12:09:01;;;;;;;31.53;21.63;;;16.60;99.90;;;;;;5024161;28;20198;-77
2022/03/28 12:11:30;;;;;;;34.57;23.03;;;16.70;99.90;;;;;;5020876;28;20299;-77
2022/03/28 12:13:58;;;;;;;36.60;22.20;;;16.50;99.90;;;;;;5021870;28;20306;-77
2022/03/28 12:16:25;;;;;;;31.47;22.73;;;16.60;99.90;;;;;;5021439;28;20272;-81
2022/03/28 12:18:53;;;;;;;37.03;23.87;;;16.70;99.90;;;;;;5021320;28;20591;-78
2022/03/28 12:21:20;;;;;;;33.47;22.83;;;16.90;99.90;;;;;;5022435;28;20215;-77
2022/03/28 12:23:50;;;;;;;31.67;21.10;;;17.00;99.90;;;;;;5022186;28;20282;-76
2022/03/28 12:26:18;;;;;;;32.83;22.10;;;16.90;99.90;;;;;;5022034;28;20210;-76
2022/03/28 12:28:46;;;;;;;29.97;21.50;;;16.80;99.90;;;;;;5023273;28;20204;-77
2022/03/28 12:31:15;;;;;;;33.67;22.80;;;17.00;99.90;;;;;;5022852;28;20214;-76
2022/03/28 12:33:46;;;;;;;37.13;22.80;;;16.80;99.90;;;;;;5021621;28;20195;-80
2022/03/28 12:36:22;;;;;;;31.33;21.77;;;16.90;99.90;;;;;;5016636;28;20219;-78
2022/03/28 12:38:59;;;;;;;30.83;21.03;;;17.10;99.90;;;;;;5025046;28;20251;-79
2022/03/28 12:41:27;;;;;;;32.07;22.27;;;17.30;99.90;;;;;;5023194;28;20254;-78
2022/03/28 12:43:55;;;;;;;37.10;21.00;;;17.20;99.90;;;;;;5021281;28;20239;-77
2022/03/28 12:46:25;;;;;;;29.63;21.17;;;17.20;99.90;;;;;;5020726;28;20286;-76
2022/03/28 12:48:57;;;;;;;32.67;22.47;;;17.30;99.90;;;;;;5022279;28;20563;-77
2022/03/28 12:51:26;;;;;;;28.27;20.33;;;17.20;99.90;;;;;;5018401;28;20202;-84
2022/03/28 12:54:05;;;;;;;31.27;21.43;;;17.20;99.90;;;;;;5019910;28;20302;-79
2022/03/28 12:56:45;;;;;;;26.83;20.27;;;17.40;99.90;;;;;;5019416;28;20295;-77
2022/03/28 12:59:17;;;;;;;33.42;25.13;;;17.20;99.90;;;;;;5018955;28;20456;-77
2022/03/28 13:01:45;;;;;;;33.57;21.70;;;17.10;99.90;;;;;;5021516;28;20643;-79
2022/03/28 13:04:16;;;;;;;27.03;20.07;;;17.20;99.90;;;;;;5018059;28;20560;-79
2022/03/28 13:06:45;;;;;;;27.77;21.03;;;17.20;99.90;;;;;;5013181;28;20200;-84
2022/03/28 13:09:13;;;;;;;26.53;19.20;;;17.30;99.90;;;;;;5013385;28;20299;-79
2022/03/28 13:11:41;;;;;;;27.70;19.73;;;17.70;99.90;;;;;;5013468;28;20200;-79
2022/03/28 13:14:08;;;;;;;28.07;20.33;;;18.10;99.90;;;;;;5013820;28;20200;-77
2022/03/28 13:16:35;;;;;;;29.37;19.23;;;18.20;99.90;;;;;;5013357;28;20201;-79
2022/03/28 13:19:03;;;;;;;27.97;20.13;;;18.10;99.90;;;;;;5013597;28;20205;-77
2022/03/28 13:21:37;;;;;;;29.05;21.92;;;17.80;99.90;;;;;;5012293;28;20789;-80